EGNV - Tees-Side
Distance from station: E 5mi, 14km
Updated: 12/17/2017 11:20am
Clear
Clear
 Wind from WNW
Wind: WNW 13 mph , 20 km/h
Temperature: 41°F , 5°C
Wind Chill: 34°F , 1°C
Dew Point: 36°F , 2°C
Humidity: 81%
Barometer: 30.03 inHg , 1017 hPa
Summary: Clear
Visibility: greater than 7 miles , 10 km
2017/12/17 19:20 EGNV 171920Z 29011KT CAVOK 05/02 Q1017